Detall de PIREP

Printer-friendly versionPDF version

[2010/07/02 18:00:00]
Flight IATA:CT2101
Pilot Number:042
Company ICAO:CAT
Aircraft Type:F100/A
PAX:48
Departing Airport: LEAS
Destination Airport: LEVC
Alternate Airport:LEPA
Online: VATSIM
Route:RATPO/N380F220 R107 VEDER/N430F340 UM30 ZMR UL155 KALMA UH100 CJN UN733 CLS
Flight Level:FL260
No Slew and time accel
No pause
Crash detect
Detect pilot in Cockpit between each 30 and 45 minutes
18:00 Zero fuel Weight: 81825 Lbs, Fuel Weight: 15767 Lbs
18:00 VATSIM:LEAS 021730Z 29007KT 4000 0900NW BCFG SCT002 BKN006 17/17 Q1017 TEMPO 2000 BR BKN005
18:00 VATSIM:LEVC 021730Z VRB02KT 9999 FEW030CB SCT040 28/16 Q1015 BECMG TSRA
18:00 VOICE CATALONIAN
18:04 Parking Brakes off
18:07 Take-off
18:07 Take off Weight: 97227 Lbs
18:07 Wind: 295 @ 007 Knots Heading: 287
18:07 POS N43 33 53 W006 02 24
18:07 Gear Up: 168 Knots
18:07 Flaps:2 at 168 Knots
18:08 Flaps:1 at 16
9 Knots
18:08 Flaps:0 at 184 Knots
18:12 Gear Down: 217 Knots
18:12 Gear Up: 213 Knots
18:22 Wind:219@035 Knots Heading: 176 Ground Speed: 376 Knots Altitude 24977 ft
18:22 TOC
18:22 Fuel Weight: 13491 Lb
18:37 Wind:223@051 Knots Heading: 143 Ground Speed: 467 Knots Altitude 26056 ft
18:52 Wind:242@020 Knots Heading: 094 Ground Speed: 485 Knots Altitude 26066 ft
18:55 TOD
18:55 Fuel Weight: 10227 Lb
19:04 Flaps:1 at 221 Knots
19:04 Flaps:2 at 220 Knots
19:07 Wind:192@006 Knots Heading: 206 Ground Speed: 188 Knots Altitude 3933 ft
19:14 Flaps:3 at 160 Knots
19:14 Gear Down: 159 Knots
19:15 Flaps:4 at 161 Knots
19:16 Flaps:3 at 157 Knots
19:18 TouchDown:Rate -767 ft/min Speed: 158 Knots
19:19 VATSIM:LEVC 021900Z 10006KT 040V120 9999 FEW040 27/16 Q1015 NOSIG
19:19 Land
19:19 Wind:083@006 Knots
19:19 Heading: 115
19:19 Flight Duration: 01:12
19:19
Landing Weight: 90819 Lbs
19:19 POS N39 29 20 W000 28 49
19:20 Parking brakes on
19:20 Block to Block Duration: 01:16
19:20 Final Fuel: 8950 Lbls
19:20 Spent Fuel: 6816 Lbls
19:20 Flight Length: 386 NM
19:20 TOD Land Length: 61 NM

Exportar CSV

Powered by Drupal - Modified by Danger4k